Time;durP1;ratioP1;P1;durP2;ratioP2;P2;SDS_P1;SDS_P2;PMS_P1;PMS_P2;Temp;Humidity;BMP_temperature;BMP_pressure;BME280_temperature;BME280_humidity;BME280_pressure;Samples;Min_cycle;Max_cycle;Signal;HPM_P1;HPM_P2
2022/04/23 00:00:27;;;;;;;13.20;9.45;;;;;;;12.11;67.20;98733.38;4352341;32;32770;-84
2022/04/23 00:02:59;;;;;;;15.07;10.32;;;;;;;12.71;64.15;98734.56;4352684;32;33862;-84
2022/04/23 00:05:28;;;;;;;;;;;;;;;12.32;65.87;98743.47;4368809;32;33933;-84
2022/04/23 00:07:58;;;;;;;12.20;7.87;;;;;;;12.32;66.26;98741.66;4342674;32;33899;-83
2022/04/23 00:10:28;;;;;;;9.98;7.45;;;;;;;12.60;65.05;98740.62;4367846;32;34726;-81
2022/04/23 00:12:57;;;;;;;10.40;8.10;;;;;;;12.72;64.69;98744.22;4355315;32;33785;-82
2022/04/23 00:15:27;;;;;;;10.57;8.57;;;;;;;12.69;65.12;98739.16;4360712;32;32067;-81
2022/04/23 00:17:56;;;;;;;9.30;8.35;;;;;;;12.72;65.06;98749.50;4355682;32;34534;-82
2022/04/23 00:20:29;;;;;;;12.27;9.30;;;;;;;12.62;65.85;98746.66;4339039;32;33919;-81
2022/04/23 00:22:57;;;;;;;10.60;7.62;;;;;;;12.85;65.21;98755.66;4350770;32;33445;-82
2022/04/23 00:25:26;;;;;;;12.82;8.73;;;;;;;12.90;65.07;98747.38;4334635;33;34123;-82
2022/04/23 00:27:54;;;;;;;13.40;8.70;;;;;;;12.74;65.95;98747.62;4333562;33;33785;-81
2022/04/23 00:30:23;;;;;;;14.00;9.55;;;;;;;12.82;65.55;98746.13;4326425;33;33266;-82
2022/04/23 00:32:51;;;;;;;12.60;9.23;;;;;;;12.43;66.83;98744.41;4339197;33;32892;-82
2022/04/23 00:35:19;;;;;;;11.98;9.02;;;;;;;12.82;65.22;98745.28;4329038;33;32064;-83
2022/04/23 00:37:47;;;;;;;11.55;8.25;;;;;;;12.63;66.13;98743.06;4328181;33;32546;-82
2022/04/23 00:40:18;;;;;;;14.23;8.98;;;;;;;12.72;65.76;98741.56;4347351;33;32922;-83
2022/04/23 00:42:51;;;;;;;12.05;10.02;;;;;;;12.51;66.64;98746.53;4339366;33;34429;-82
2022/04/23 00:45:20;;;;;;;11.43;9.23;;;;;;;12.59;66.47;98753.97;4340006;33;33242;-84
2022/04/23 00:47:48;;;;;;;13.85;10.45;;;;;;;12.42;66.90;98758.59;4339577;32;33536;-82
2022/04/23 00:50:20;;;;;;;16.40;9.90;;;;;;;12.57;66.35;98757.56;4337273;33;33386;-82
2022/04/23 00:52:50;;;;;;;13.05;9.68;;;;;;;12.99;64.27;98755.53;4339085;33;33886;-82
2022/04/23 00:55:19;;;;;;;9.70;7.95;;;;;;;12.13;67.88;98757.06;4341116;33;33511;-82
2022/04/23 00:57:47;;;;;;;15.23;9.60;;;;;;;12.47;66.32;98750.34;4328957;33;33375;-83
2022/04/23 01:00:15;;;;;;;14.02;10.05;;;;;;;12.51;66.08;98757.13;4317773;33;33514;-83
2022/04/23 01:02:54;;;;;;;13.00;9.35;;;;;;;12.37;67.01;98760.72;4326282;33;34233;-83
2022/04/23 01:05:26;;;;;;;12.45;8.77;;;;;;;12.68;65.91;98753.34;4332910;33;33445;-83
2022/04/23 01:07:53;;;;;;;12.82;9.95;;;;;;;12.36;67.29;98760.84;4341390;33;33756;-84
2022/04/23 01:10:23;;;;;;;15.63;9.82;;;;;;;12.47;67.17;98753.00;4338856;33;34008;-83
2022/04/23 01:12:53;;;;;;;10.73;9.10;;;;;;;12.82;65.92;98754.09;4343343;33;33606;-82
2022/04/23 01:15:22;;;;;;;13.20;8.73;;;;;;;12.87;65.40;98758.22;4339717;33;33846;-82
2022/04/23 01:17:51;;;;;;;12.07;9.20;;;;;;;12.86;65.67;98753.84;4327929;33;34635;-82
2022/04/23 01:20:19;;;;;;;14.32;9.60;;;;;;;12.72;65.91;98750.37;4342202;32;33985;-82
2022/04/23 01:22:46;;;;;;;10.98;9.65;;;;;;;12.58;67.07;98763.72;4353955;32;33923;-82
2022/04/23 01:25:15;;;;;;;14.95;10.30;;;;;;;12.56;67.10;98757.66;4354641;32;33762;-82
2022/04/23 01:27:45;;;;;;;12.00;9.48;;;;;;;12.45;67.68;98765.50;4354259;32;33815;-82
2022/04/23 01:30:15;;;;;;;12.85;9.68;;;;;;;12.52;67.60;98757.03;4366217;32;34853;-81
2022/04/23 01:32:44;;;;;;;13.82;9.68;;;;;;;12.46;67.93;98757.44;4361833;32;33988;-83
2022/04/23 01:35:11;;;;;;;13.52;10.18;;;;;;;12.56;67.58;98758.50;4356023;32;35108;-84
2022/04/23 01:37:39;;;;;;;14.05;10.98;;;;;;;12.52;67.85;98754.38;4342197;32;34458;-83
2022/04/23 01:40:08;;;;;;;13.90;10.25;;;;;;;12.37;68.39;98754.56;4356283;32;31724;-83
2022/04/23 01:42:35;;;;;;;14.43;9.75;;;;;;;12.54;67.85;98762.25;4355631;32;33874;-83
2022/04/23 01:45:04;;;;;;;14.48;10.52;;;;;;;12.77;66.99;98752.69;4342618;32;32503;-82
2022/04/23 01:47:32;;;;;;;15.40;10.68;;;;;;;12.63;67.31;98764.25;4340566;32;33838;-82
2022/04/23 01:50:00;;;;;;;15.68;10.75;;;;;;;12.46;68.06;98765.41;4354534;32;34767;-82
2022/04/23 01:52:28;;;;;;;14.80;10.00;;;;;;;12.34;68.76;98766.22;4343367;32;32489;-82
2022/04/23 01:54:56;;;;;;;12.45;9.80;;;;;;;12.38;68.81;98762.41;4354734;32;33510;-83
2022/04/23 01:57:23;;;;;;;13.23;10.10;;;;;;;12.44;68.47;98761.16;4343374;32;32920;-83
2022/04/23 01:59:51;;;;;;;14.05;10.32;;;;;;;12.75;67.23;98762.56;4341148;32;33058;-83
2022/04/23 02:02:19;;;;;;;12.88;10.48;;;;;;;12.56;67.97;98774.41;4354610;32;34633;-82
2022/04/23 02:04:48;;;;;;;17.87;11.25;;;;;;;12.63;67.69;98766.91;4354612;32;33178;-83
2022/04/23 02:07:16;;;;;;;12.45;10.52;;;;;;;12.61;67.89;98770.59;4345822;32;33719;-83
2022/04/23 02:09:43;;;;;;;18.35;12.25;;;;;;;12.56;68.19;98774.41;4335852;32;32844;-82
2022/04/23 02:12:11;;;;;;;16.70;11.88;;;;;;;12.60;68.02;98766.25;4329631;32;34196;-82
2022/04/23 02:14:39;;;;;;;16.25;11.70;;;;;;;12.53;68.18;98779.94;4355293;32;33856;-82
2022/04/23 02:17:09;;;;;;;16.85;10.93;;;;;;;12.81;67.04;98773.56;4354938;32;33912;-82
2022/04/23 02:19:39;;;;;;;16.50;11.50;;;;;;;12.72;67.18;98768.03;4341734;32;33610;-81
2022/04/23 02:22:06;;;;;;;16.27;12.07;;;;;;;12.65;67.53;98777.38;4359713;32;33703;-82
2022/04/23 02:24:34;;;;;;;14.70;11.73;;;;;;;12.33;68.61;98772.47;4354087;32;33519;-82
2022/04/23 02:27:03;;;;;;;15.15;12.30;;;;;;;12.34;68.95;98770.66;4331656;32;33225;-81
2022/04/23 02:29:31;;;;;;;19.15;12.32;;;;;;;12.64;67.67;98770.41;4339992;32;33289;-82
2022/04/23 02:31:58;;;;;;;18.25;11.70;;;;;;;12.54;67.85;98775.47;4349285;32;34003;-81
2022/04/23 02:34:26;;;;;;;18.20;12.40;;;;;;;12.72;67.06;98778.66;4342075;32;32898;-82
2022/04/23 02:36:54;;;;;;;16.55;12.15;;;;;;;12.78;66.58;98781.75;4361342;32;33911;-83
2022/04/23 02:39:22;;;;;;;16.27;12.18;;;;;;;12.78;66.39;98787.03;4341429;32;32652;-82
2022/04/23 02:41:50;;;;;;;19.05;12.77;;;;;;;12.63;67.06;98788.09;4354657;32;33638;-82
2022/04/23 02:44:19;;;;;;;17.17;12.65;;;;;;;12.61;67.31;98784.69;4341757;32;33331;-83
2022/04/23 02:46:47;;;;;;;15.30;12.23;;;;;;;12.54;67.56;98788.72;4353664;32;33856;-83
2022/04/23 02:49:16;;;;;;;20.42;11.90;;;;;;;12.64;67.27;98791.59;4354474;32;34196;-83
2022/04/23 02:51:43;;;;;;;12.20;10.52;;;;;;;12.54;67.55;98789.56;4354715;32;34059;-83
2022/04/23 02:54:12;;;;;;;18.20;12.98;;;;;;;12.60;67.37;98787.44;4353362;32;32833;-82
2022/04/23 02:56:40;;;;;;;17.80;11.73;;;;;;;12.51;67.68;98789.75;4351203;32;33823;-82
2022/04/23 02:59:08;;;;;;;19.52;12.70;;;;;;;12.63;67.46;98792.50;4341321;32;32711;-81
2022/04/23 03:01:36;;;;;;;18.62;11.63;;;;;;;12.57;67.42;98784.03;4352449;32;33497;-82
2022/04/23 03:04:05;;;;;;;16.92;12.20;;;;;;;12.54;67.55;98784.25;4354183;32;33931;-82
2022/04/23 03:06:33;;;;;;;17.70;11.95;;;;;;;12.60;67.41;98790.09;4353760;32;33931;-83
2022/04/23 03:09:03;;;;;;;18.35;12.63;;;;;;;12.67;67.23;98783.41;4337944;32;35481;-83
2022/04/23 03:11:31;;;;;;;17.02;12.70;;;;;;;12.65;67.29;98791.47;4359640;32;34785;-83
2022/04/23 03:14:03;;;;;;;16.80;12.43;;;;;;;12.49;67.74;98783.72;4353736;32;33577;-82
2022/04/23 03:16:31;;;;;;;15.50;12.25;;;;;;;12.67;67.16;98780.75;4355371;32;34052;-81
2022/04/23 03:19:00;;;;;;;16.02;12.02;;;;;;;12.72;66.91;98786.59;4338827;32;33539;-81
2022/04/23 03:21:28;;;;;;;16.75;11.93;;;;;;;12.62;67.32;98790.81;4354834;32;33921;-81
2022/04/23 03:23:57;;;;;;;14.93;11.75;;;;;;;12.59;67.43;98788.41;4361834;32;32672;-83
2022/04/23 03:26:26;;;;;;;15.57;11.75;;;;;;;12.67;67.25;98786.06;4352346;32;33490;-83
2022/04/23 03:28:56;;;;;;;15.32;11.77;;;;;;;12.64;67.27;98799.53;4329172;32;32939;-83
2022/04/23 03:31:25;;;;;;;16.75;11.95;;;;;;;12.57;67.41;98791.97;4352567;32;34395;-82
2022/04/23 03:33:58;;;;;;;19.95;13.02;;;;;;;12.62;67.22;98796.13;4344056;32;32315;-84
2022/04/23 03:36:27;;;;;;;18.12;11.90;;;;;;;12.59;67.27;98804.28;4341172;32;33631;-85
2022/04/23 03:38:55;;;;;;;15.73;11.75;;;;;;;12.74;66.80;98805.88;4343233;32;32884;-84
2022/04/23 03:41:23;;;;;;;16.45;11.18;;;;;;;12.62;67.19;98804.91;4354520;32;34713;-82
2022/04/23 03:43:52;;;;;;;14.70;12.25;;;;;;;12.65;67.16;98811.81;4353582;32;35885;-82
2022/04/23 03:46:20;;;;;;;17.90;12.70;;;;;;;12.74;66.75;98805.88;4342342;32;34875;-82
2022/04/23 03:48:49;;;;;;;17.05;11.45;;;;;;;12.78;66.68;98812.69;4356109;32;33610;-82
2022/04/23 03:51:17;;;;;;;16.40;12.10;;;;;;;12.74;66.64;98813.84;4355834;32;35619;-82
2022/04/23 03:53:45;;;;;;;15.90;12.57;;;;;;;12.52;67.46;98817.91;4353662;32;32789;-82
2022/04/23 03:56:13;;;;;;;16.70;11.20;;;;;;;12.63;67.14;98813.69;4340615;32;33863;-82
2022/04/23 03:58:41;;;;;;;17.08;12.00;;;;;;;12.71;66.78;98822.81;4356942;32;33371;-81
2022/04/23 04:01:09;;;;;;;16.27;12.10;;;;;;;12.75;66.71;98823.47;4353449;32;34127;-82
2022/04/23 04:03:37;;;;;;;15.48;11.73;;;;;;;12.74;66.92;98827.09;4341489;32;33229;-82
2022/04/23 04:06:05;;;;;;;14.85;11.95;;;;;;;12.48;67.73;98816.44;4354559;32;33802;-82
2022/04/23 04:08:34;;;;;;;15.98;12.40;;;;;;;12.64;67.25;98828.66;4341545;32;33557;-82
2022/04/23 04:11:05;;;;;;;16.20;11.68;;;;;;;12.51;67.89;98824.19;4355598;32;33636;-84
2022/04/23 04:13:33;;;;;;;16.67;12.15;;;;;;;12.54;67.71;98831.09;4353931;32;32216;-83
2022/04/23 04:16:02;;;;;;;16.60;12.40;;;;;;;12.50;67.96;98825.13;4364273;32;33626;-83
2022/04/23 04:18:30;;;;;;;17.08;13.25;;;;;;;12.52;67.99;98823.22;4352573;32;34036;-83
2022/04/23 04:20:58;;;;;;;16.67;11.68;;;;;;;12.42;68.27;98827.44;4349700;32;33007;-82
2022/04/23 04:23:27;;;;;;;16.15;12.20;;;;;;;12.40;68.53;98839.94;4342259;32;31189;-82
2022/04/23 04:25:55;;;;;;;17.08;12.55;;;;;;;12.37;68.63;98834.84;4369437;32;33027;-82
2022/04/23 04:28:24;;;;;;;15.32;10.52;;;;;;;12.52;68.08;98839.09;4353152;32;33220;-81
2022/04/23 04:33:41;;;;;;;16.50;11.43;;;;;;;12.38;68.79;98840.97;4368416;32;32886;-81
2022/04/23 04:36:10;;;;;;;16.58;11.45;;;;;;;12.36;68.90;98841.09;4354432;32;32505;-81
2022/04/23 04:38:37;;;;;;;16.60;11.68;;;;;;;12.35;68.88;98841.19;4341524;32;32766;-81
2022/04/23 04:41:06;;;;;;;13.70;10.38;;;;;;;12.35;68.83;98841.19;4365811;32;33824;-81
2022/04/23 04:43:34;;;;;;;12.88;9.50;;;;;;;12.43;68.67;98844.16;4353433;32;32163;-81
2022/04/23 04:46:03;;;;;;;14.38;10.85;;;;;;;12.57;68.24;98842.28;4342979;32;33649;-80
2022/04/23 04:48:32;;;;;;;15.10;10.90;;;;;;;12.51;68.41;98837.41;4366034;32;34173;-82
2022/04/23 04:51:00;;;;;;;12.60;9.75;;;;;;;12.59;68.21;98844.00;4354337;32;34081;-82
2022/04/23 04:53:29;;;;;;;14.30;9.75;;;;;;;12.63;68.10;98837.53;4343317;32;32070;-82
2022/04/23 04:56:00;;;;;;;13.18;9.68;;;;;;;12.73;67.70;98836.84;4344011;32;33021;-82
2022/04/23 04:58:29;;;;;;;11.57;9.80;;;;;;;12.67;68.02;98839.88;4365163;32;34371;-82
2022/04/23 05:11:33;;;;;;;12.73;10.25;;;;;;;12.81;68.48;98837.13;4504400;31;219714;-82
2022/04/23 05:14:01;;;;;;;12.20;9.25;;;;;;;13.08;67.35;98846.81;4473716;31;33371;-82
2022/04/23 05:16:30;;;;;;;14.23;10.27;;;;;;;13.23;66.71;98844.94;4473659;31;34957;-82
2022/04/23 05:18:59;;;;;;;13.10;9.40;;;;;;;13.04;67.49;98843.50;4473215;31;32604;-82
2022/04/23 05:21:28;;;;;;;9.68;8.63;;;;;;;13.03;67.74;98855.06;4474627;32;32622;-82
2022/04/23 05:24:01;;;;;;;11.80;9.63;;;;;;;13.30;66.96;98854.16;4488460;31;33498;-82
2022/04/23 05:26:35;;;;;;;13.13;9.15;;;;;;;13.27;67.02;98863.16;4481779;31;32870;-82
2022/04/23 05:29:08;;;;;;;13.40;9.82;;;;;;;13.40;66.29;98855.22;4464929;32;32901;-82
2022/04/23 05:31:38;;;;;;;12.30;10.00;;;;;;;13.34;66.74;98863.59;4481180;31;34425;-82
2022/04/23 05:34:07;;;;;;;11.12;9.25;;;;;;;13.44;66.35;98864.66;4471862;32;33000;-82
2022/04/23 05:36:36;;;;;;;12.00;9.20;;;;;;;13.28;66.95;98866.66;4465278;32;33044;-82
2022/04/23 05:39:05;;;;;;;10.35;8.65;;;;;;;13.26;66.96;98869.44;4473741;32;33690;-82
2022/04/23 05:41:43;;;;;;;11.20;8.55;;;;;;;13.57;65.69;98868.09;4489299;31;33236;-83
2022/04/23 05:44:13;;;;;;;11.82;8.73;;;;;;;13.54;65.67;98864.84;4477690;32;30079;-82
2022/04/23 05:46:51;;;;;;;11.50;9.50;;;;;;;13.48;65.70;98868.78;4490092;32;33933;-82
2022/04/23 05:49:20;;;;;;;10.35;9.00;;;;;;;13.63;65.13;98860.69;4487368;32;31389;-84
2022/04/23 05:52:10;;;;;;;14.18;8.93;;;;;;;13.53;65.97;98877.25;4464511;32;33898;-84
2022/04/23 05:54:48;;;;;;;12.77;9.35;;;;;;;13.52;66.79;98872.87;4447159;32;33300;-84
2022/04/23 05:57:25;;;;;;;12.27;9.18;;;;;;;13.49;66.61;98882.88;4464922;32;32955;-84
2022/04/23 05:59:55;;;;;;;12.95;8.50;;;;;;;13.77;65.82;98873.81;4467692;32;33995;-84
2022/04/23 06:02:24;;;;;;;9.35;7.95;;;;;;;14.03;64.71;98875.44;4471850;32;33480;-84
2022/04/23 06:04:53;;;;;;;12.00;8.93;;;;;;;14.20;62.94;98874.22;4467773;32;32850;-84
2022/04/23 06:07:27;;;;;;;12.18;8.80;;;;;;;13.83;64.08;98871.56;4473748;32;34079;-83
2022/04/23 06:09:59;;;;;;;11.05;9.60;;;;;;;13.92;64.20;98880.69;4477225;32;34809;-84
2022/04/23 06:12:34;;;;;;;12.52;8.48;;;;;;;14.17;63.81;98894.81;4463975;32;32680;-83
2022/04/23 06:15:04;;;;;;;11.40;8.75;;;;;;;14.58;62.48;98887.34;4460943;32;32245;-84
2022/04/23 06:17:34;;;;;;;;;;;;;;;14.30;63.08;98895.63;4478660;32;33992;-84
2022/04/23 06:20:09;;;;;;;10.40;8.32;;;;;;;14.64;62.94;98890.50;4459011;32;32998;-84
2022/04/23 06:22:43;;;;;;;11.77;8.52;;;;;;;14.58;62.29;98895.31;4442423;32;33611;-84
2022/04/23 06:25:12;;;;;;;11.95;9.43;;;;;;;14.45;61.98;98894.50;4456197;32;32459;-84
2022/04/23 06:27:45;;;;;;;11.15;8.68;;;;;;;14.09;63.83;98903.34;4475751;32;34530;-84
2022/04/23 06:30:20;;;;;;;9.10;7.65;;;;;;;14.51;62.51;98917.13;4468088;32;32733;-84
2022/04/23 06:32:56;;;;;;;9.43;7.53;;;;;;;14.77;59.57;98910.72;4476719;32;33683;-84
2022/04/23 06:35:34;;;;;;;13.20;8.43;;;;;;;14.91;59.51;98917.66;4465230;32;33417;-83
2022/04/23 06:38:06;;;;;;;12.73;8.13;;;;;;;14.56;61.09;98923.78;4468018;32;32369;-83
2022/04/23 06:40:36;;;;;;;9.25;8.02;;;;;;;14.69;61.19;98922.88;4478346;32;33772;-84
2022/04/23 06:43:05;;;;;;;9.90;7.65;;;;;;;14.72;59.30;98925.34;4456716;32;33925;-83
2022/04/23 06:45:37;;;;;;;12.10;8.13;;;;;;;14.52;60.74;98927.63;4477281;32;32293;-84
2022/04/23 06:48:10;;;;;;;10.48;8.63;;;;;;;14.11;63.63;98932.44;4466006;32;34613;-84
2022/04/23 06:50:39;;;;;;;11.38;8.80;;;;;;;14.14;63.73;98932.19;4457535;32;33597;-84
2022/04/23 06:53:12;;;;;;;12.50;9.88;;;;;;;14.64;61.91;98933.00;4459486;32;33402;-84
2022/04/23 06:55:58;;;;;;;11.40;8.77;;;;;;;14.83;61.55;98936.00;4454158;32;33625;-83
2022/04/23 06:58:38;;;;;;;8.80;7.75;;;;;;;14.58;62.20;98947.59;4481686;32;34350;-84
2022/04/23 07:01:11;;;;;;;9.05;7.12;;;;;;;14.40;62.87;98944.44;4465034;32;32627;-84
2022/04/23 07:03:45;;;;;;;10.05;6.75;;;;;;;14.59;61.79;98944.81;4461070;32;32465;-84
2022/04/23 07:06:18;;;;;;;10.55;7.28;;;;;;;14.87;60.42;98945.44;4461826;32;33074;-83
2022/04/23 07:08:49;;;;;;;10.90;8.60;;;;;;;15.00;60.39;98953.31;4475255;31;32214;-84
2022/04/23 07:11:18;;;;;;;12.10;7.68;;;;;;;14.61;62.19;98958.00;4461147;32;33707;-83
2022/04/23 07:13:48;;;;;;;9.65;7.32;;;;;;;14.84;60.65;98954.47;4464036;31;33041;-82
2022/04/23 07:16:18;;;;;;;10.15;7.72;;;;;;;14.50;62.22;98956.13;4463531;32;32607;-82
2022/04/23 07:18:52;;;;;;;8.85;7.93;;;;;;;14.50;62.44;98958.78;4462290;32;33614;-82
2022/04/23 07:21:27;;;;;;;9.13;7.62;;;;;;;14.83;61.11;98970.53;4476613;32;33285;-83
2022/04/23 07:24:05;;;;;;;9.25;6.85;;;;;;;14.82;61.25;98958.22;4464592;32;33688;-85
2022/04/23 07:26:40;;;;;;;8.70;6.68;;;;;;;15.12;60.02;98952.41;4460950;32;33454;-84
2022/04/23 07:29:22;;;;;;;10.52;6.55;;;;;;;15.22;58.05;98960.53;4473738;32;31844;-85
2022/04/23 07:31:51;;;;;;;8.45;6.55;;;;;;;15.10;58.22;98965.81;4443350;32;33652;-82
2022/04/23 07:37:34;;;;;;;7.95;6.55;;;;;;;15.09;59.28;98980.06;4453510;32;32711;-84
2022/04/23 07:40:10;;;;;;;7.80;6.47;;;;;;;14.63;62.07;98987.13;4465705;32;33914;-82
2022/04/23 07:42:44;;;;;;;9.85;6.85;;;;;;;14.98;59.92;98974.72;4476670;31;33748;-82
2022/04/23 07:45:24;;;;;;;;;;;;;;;14.72;62.03;98978.47;4450763;32;32779;-82
2022/04/23 07:47:52;;;;;;;7.57;5.78;;;;;;;15.22;59.17;98971.16;4461640;32;33164;-82
2022/04/23 07:50:37;;;;;;;9.45;5.82;;;;;;;15.27;58.67;98977.81;4472360;31;34626;-82
2022/04/23 07:53:09;;;;;;;9.75;7.95;;;;;;;15.15;59.42;98977.94;4454933;32;33623;-83
2022/04/23 07:55:42;;;;;;;9.82;8.40;;;;;;;14.89;60.80;98983.38;4461098;32;33781;-82
2022/04/23 07:58:14;;;;;;;10.52;8.00;;;;;;;14.92;60.61;98987.63;4452990;32;31924;-82
2022/04/23 08:00:44;;;;;;;11.05;8.20;;;;;;;14.93;61.67;98994.63;4463005;32;30668;-82
2022/04/23 08:03:20;;;;;;;9.93;7.97;;;;;;;14.97;61.30;98996.94;4459825;32;33327;-82
2022/04/23 08:05:51;;;;;;;11.07;8.43;;;;;;;14.95;62.53;98998.00;4461246;32;32351;-82
2022/04/23 08:11:08;;;;;;;12.80;10.00;;;;;;;15.22;60.79;98993.28;4472558;32;34645;-82
2022/04/23 08:16:20;;;;;;;12.70;9.60;;;;;;;15.44;59.43;98997.84;4464170;32;32406;-82
2022/04/23 08:18:49;;;;;;;12.32;9.13;;;;;;;15.13;61.00;98993.13;4463105;32;32676;-82
2022/04/23 08:21:19;;;;;;;11.77;9.40;;;;;;;15.19;61.36;98995.31;4477382;32;33591;-82
2022/04/23 08:23:58;;;;;;;12.68;10.27;;;;;;;15.16;62.50;98995.56;4462419;32;33307;-82
2022/04/23 08:26:39;;;;;;;;;;;;;;;15.72;58.47;98998.41;4464382;32;33504;-82
2022/04/23 08:31:55;;;;;;;13.23;9.23;;;;;;;15.48;59.28;99009.09;4473963;32;34291;-82
2022/04/23 08:34:24;;;;;;;13.38;10.65;;;;;;;15.61;58.55;99008.00;4452912;32;34116;-82
2022/04/23 08:36:53;;;;;;;12.73;9.05;;;;;;;15.50;59.23;99005.34;4462102;32;33609;-82
2022/04/23 08:39:22;;;;;;;11.07;8.88;;;;;;;15.47;59.23;99000.25;4448273;32;32120;-82
2022/04/23 08:41:54;;;;;;;10.85;9.60;;;;;;;15.53;59.33;98997.13;4452763;32;32809;-82
2022/04/23 08:44:34;;;;;;;13.23;9.40;;;;;;;15.68;58.38;99003.13;4462849;32;32872;-82
2022/04/23 08:47:05;;;;;;;10.10;8.18;;;;;;;15.58;58.71;99008.25;4473999;32;33468;-82
2022/04/23 08:49:39;;;;;;;10.27;9.15;;;;;;;15.93;56.84;99006.53;4448789;32;32708;-83
2022/04/23 08:52:16;;;;;;;15.57;9.13;;;;;;;15.94;57.63;99002.87;4463408;32;32757;-82
2022/04/23 08:54:54;;;;;;;10.30;9.18;;;;;;;16.00;58.94;99008.59;4465851;32;34520;-82
2022/04/23 08:57:35;;;;;;;14.02;8.88;;;;;;;16.09;57.91;99007.88;4461705;32;32491;-82
2022/04/23 09:00:08;;;;;;;9.33;8.33;;;;;;;16.00;57.92;99005.06;4471828;32;33527;-82
2022/04/23 09:02:38;;;;;;;10.90;8.45;;;;;;;15.59;58.63;99019.75;4461972;32;32588;-82
2022/04/23 09:05:12;;;;;;;12.35;8.98;;;;;;;15.94;55.42;99025.03;4463800;32;34017;-83
2022/04/23 09:07:53;;;;;;;12.07;9.10;;;;;;;15.77;57.10;99026.34;4463656;32;32884;-82
2022/04/23 09:10:54;;;;;;;9.73;8.38;;;;;;;15.60;58.37;99022.28;4466343;32;32816;-83
2022/04/23 09:13:31;;;;;;;9.60;8.38;;;;;;;15.95;56.10;99026.75;4463708;32;34680;-83
2022/04/23 09:24:18;;;;;;;9.93;7.85;;;;;;;14.96;59.05;99037.78;4473015;32;33864;-83
2022/04/23 09:27:03;;;;;;;11.23;8.23;;;;;;;15.66;56.94;99036.97;4448343;32;32702;-82
2022/04/23 09:29:35;;;;;;;9.27;7.75;;;;;;;15.66;56.04;99036.97;4463320;32;33824;-83
2022/04/23 09:32:17;;;;;;;10.02;7.75;;;;;;;15.96;56.42;99041.75;4466373;32;32236;-82
2022/04/23 09:35:09;;;;;;;14.50;9.52;;;;;;;16.05;55.22;99049.03;4457965;32;33474;-83
2022/04/23 09:40:29;;;;;;;10.50;8.38;;;;;;;15.89;57.38;99037.84;4475295;32;34320;-83
2022/04/23 09:43:03;;;;;;;14.85;8.88;;;;;;;15.77;58.17;99045.00;4463296;32;33423;-83
2022/04/23 09:45:42;;;;;;;13.27;9.18;;;;;;;15.66;58.75;99052.09;4450732;32;32808;-82
2022/04/23 09:48:12;;;;;;;10.55;9.40;;;;;;;15.72;58.94;99049.81;4467466;32;34547;-82
2022/04/23 09:50:59;;;;;;;11.48;8.50;;;;;;;15.99;57.69;99044.16;4474099;32;33754;-82
2022/04/23 09:53:29;;;;;;;10.20;7.43;;;;;;;15.78;58.16;99045.84;4475777;32;32561;-82
2022/04/23 09:56:04;;;;;;;10.60;8.55;;;;;;;15.97;56.81;99046.09;4465300;32;32700;-82
2022/04/23 09:58:34;;;;;;;13.82;8.93;;;;;;;15.62;58.14;99052.31;4465521;32;33250;-82
2022/04/23 10:01:21;;;;;;;11.55;9.07;;;;;;;15.69;58.20;99054.53;4467608;32;34495;-83
2022/04/23 10:03:52;;;;;;;9.32;8.32;;;;;;;15.61;58.53;99060.38;4463249;32;34016;-83
2022/04/23 10:09:22;;;;;;;10.90;8.32;;;;;;;16.09;57.82;99054.94;4475959;32;34714;-84
2022/04/23 10:12:02;;;;;;;11.50;8.18;;;;;;;16.11;57.06;99058.34;4460545;32;34226;-84
2022/04/23 10:14:35;;;;;;;12.90;8.88;;;;;;;16.22;56.20;99066.31;4464783;32;32833;-83
2022/04/23 10:17:10;;;;;;;14.25;9.63;;;;;;;16.13;57.15;99067.88;4452440;32;32148;-83
2022/04/23 10:19:40;;;;;;;11.75;8.48;;;;;;;16.16;57.12;99069.47;4464238;32;32982;-83
2022/04/23 10:22:21;;;;;;;13.77;8.50;;;;;;;16.18;57.44;99077.34;4460745;32;33598;-84
2022/04/23 10:25:08;;;;;;;10.10;8.65;;;;;;;16.22;56.99;99081.47;4452412;32;32769;-84
2022/04/23 10:27:41;;;;;;;10.40;7.57;;;;;;;15.98;56.56;99073.56;4462862;32;33273;-83
2022/04/23 10:30:15;;;;;;;9.95;7.37;;;;;;;16.33;55.80;99068.12;4463750;32;32861;-82
2022/04/23 10:32:50;;;;;;;9.45;8.15;;;;;;;16.44;54.96;99070.81;4460451;32;33422;-83
2022/04/23 10:35:20;;;;;;;10.63;8.20;;;;;;;16.30;56.07;99069.25;4456347;32;32846;-83
2022/04/23 10:37:56;;;;;;;10.35;8.48;;;;;;;16.46;54.78;99068.88;4475056;32;33843;-82
2022/04/23 10:40:25;;;;;;;12.65;8.10;;;;;;;16.03;56.32;99066.91;4464194;32;32566;-82
2022/04/23 10:43:15;;;;;;;9.07;7.75;;;;;;;15.84;57.27;99071.97;4458944;32;32810;-82
2022/04/23 10:45:53;;;;;;;9.23;7.55;;;;;;;15.93;56.99;99073.94;4454070;32;33146;-82
2022/04/23 10:48:24;;;;;;;10.13;8.38;;;;;;;15.80;57.49;99081.16;4475543;32;34108;-82
2022/04/23 10:51:00;;;;;;;12.60;9.10;;;;;;;15.84;56.52;99077.28;4461979;32;33710;-82
2022/04/23 10:53:48;;;;;;;10.75;8.27;;;;;;;15.59;57.79;99092.44;4474151;31;33436;-82
2022/04/23 10:56:25;;;;;;;9.93;7.97;;;;;;;15.79;57.43;99084.78;4463811;32;35465;-82
2022/04/23 10:58:59;;;;;;;12.02;7.37;;;;;;;15.64;57.05;99096.59;4464682;32;33629;-82
2022/04/23 11:01:31;;;;;;;8.85;7.47;;;;;;;15.80;56.55;99092.66;4460194;31;34097;-83
2022/04/23 11:04:12;;;;;;;9.07;7.43;;;;;;;15.88;57.21;99095.56;4475092;32;35391;-82
2022/04/23 11:12:22;;;;;;;7.80;6.95;;;;;;;15.91;57.12;99091.00;4476822;32;34489;-83
2022/04/23 11:14:55;;;;;;;9.45;7.20;;;;;;;16.43;55.45;99090.44;4463557;32;32885;-83
2022/04/23 11:17:30;;;;;;;9.18;7.07;;;;;;;16.45;55.30;99087.66;4460844;32;33752;-83
2022/04/23 11:20:06;;;;;;;11.07;8.05;;;;;;;16.46;54.45;99090.19;4478259;32;34208;-81
2022/04/23 11:22:47;;;;;;;8.35;7.35;;;;;;;16.94;53.66;99083.72;4476393;32;35083;-82
2022/04/23 11:25:16;;;;;;;9.75;6.53;;;;;;;17.06;52.36;99077.41;4470035;32;33771;-82
2022/04/23 11:27:50;;;;;;;8.82;6.60;;;;;;;16.89;52.88;99087.63;4458880;32;33172;-82
2022/04/23 11:30:29;;;;;;;7.80;6.35;;;;;;;16.63;54.23;99091.53;4447312;32;32639;-82
2022/04/23 11:33:12;;;;;;;9.27;7.05;;;;;;;16.93;53.21;99090.88;4458428;32;33408;-82
2022/04/23 11:35:43;;;;;;;;;;;;;;;17.01;52.64;99091.12;4476454;31;33402;-82
2022/04/23 11:38:20;;;;;;;9.20;6.62;;;;;;;16.84;53.18;99094.31;4474845;31;32117;-82
2022/04/23 11:40:59;;;;;;;9.57;7.45;;;;;;;17.00;52.99;99092.09;4473564;32;32941;-82
2022/04/23 11:43:34;;;;;;;10.18;8.32;;;;;;;16.99;52.02;99093.06;4473919;32;33579;-82
2022/04/23 11:48:48;;;;;;;9.55;7.18;;;;;;;16.99;54.51;99095.72;4462680;32;32534;-81
2022/04/23 11:51:30;;;;;;;9.00;6.90;;;;;;;16.94;53.48;99095.25;4448136;32;33514;-82
2022/04/23 11:54:00;;;;;;;10.68;7.60;;;;;;;16.83;53.51;99100.59;4474997;32;34677;-83
2022/04/23 11:56:40;;;;;;;13.37;8.70;;;;;;;16.51;55.97;99103.16;4460403;32;33521;-83
2022/04/23 11:59:15;;;;;;;13.07;8.75;;;;;;;16.81;54.71;99102.56;4478857;32;33792;-83
2022/04/23 12:01:44;;;;;;;12.82;9.13;;;;;;;16.77;54.41;99093.13;4461591;32;32960;-82
2022/04/23 12:04:20;;;;;;;9.50;7.82;;;;;;;16.52;55.28;99105.72;4466372;32;32984;-82
2022/04/23 12:07:00;;;;;;;15.13;8.02;;;;;;;16.50;55.15;99096.97;4454650;32;33483;-82
2022/04/23 12:09:28;;;;;;;15.82;8.57;;;;;;;16.49;55.47;99095.28;4452417;32;31944;-82
2022/04/23 12:11:59;;;;;;;9.63;7.72;;;;;;;16.48;55.76;99093.59;4449583;32;33174;-83
2022/04/23 12:14:27;;;;;;;10.70;7.85;;;;;;;16.37;57.01;99090.91;4458998;32;33619;-82
2022/04/23 12:17:07;;;;;;;9.93;7.68;;;;;;;16.85;53.80;99085.31;4451909;32;33097;-82
2022/04/23 12:19:43;;;;;;;10.15;8.55;;;;;;;16.75;54.78;99084.38;4468750;32;34153;-82
2022/04/23 12:22:28;;;;;;;11.80;7.93;;;;;;;16.53;59.93;99082.56;4452891;32;32786;-82
2022/04/23 12:27:56;;;;;;;9.05;6.05;;;;;;;17.67;53.23;99072.31;4462454;32;32448;-82
2022/04/23 12:42:03;;;;;;;8.25;6.25;;;;;;;17.67;49.36;99067.81;4471943;32;33536;-84
2022/04/23 12:44:42;;;;;;;10.77;5.95;;;;;;;17.33;50.08;99063.63;4464806;32;32542;-84
2022/04/23 12:47:13;;;;;;;10.23;6.78;;;;;;;17.30;49.75;99066.53;4472966;32;32705;-84
2022/04/23 12:49:57;;;;;;;7.10;6.25;;;;;;;17.53;50.45;99065.47;4458948;32;33475;-84